sensor_id;sensor_type;location;lat;lon;timestamp;P1;durP1;ratioP1;P2;durP2;ratioP2
27539;SDS011;15906;52.046;4.724;2023-07-29T00:00:57;4.60;;;1.67;;
27539;SDS011;15906;52.046;4.724;2023-07-29T00:03:22;3.28;;;1.73;;
27539;SDS011;15906;52.046;4.724;2023-07-29T00:05:48;5.00;;;1.70;;
27539;SDS011;15906;52.046;4.724;2023-07-29T00:08:14;3.25;;;1.63;;
27539;SDS011;15906;52.046;4.724;2023-07-29T00:10:39;2.38;;;1.75;;
27539;SDS011;15906;52.046;4.724;2023-07-29T00:13:05;3.67;;;1.70;;
27539;SDS011;15906;52.046;4.724;2023-07-29T00:15:31;4.07;;;1.42;;
27539;SDS011;15906;52.046;4.724;2023-07-29T00:17:57;5.00;;;2.00;;
27539;SDS011;15906;52.046;4.724;2023-07-29T00:20:22;4.95;;;1.50;;
27539;SDS011;15906;52.046;4.724;2023-07-29T00:22:48;2.88;;;1.40;;
27539;SDS011;15906;52.046;4.724;2023-07-29T00:25:18;5.75;;;2.03;;
27539;SDS011;15906;52.046;4.724;2023-07-29T00:27:44;5.63;;;2.00;;
27539;SDS011;15906;52.046;4.724;2023-07-29T00:30:10;4.32;;;1.77;;
27539;SDS011;15906;52.046;4.724;2023-07-29T00:32:36;4.35;;;1.52;;
27539;SDS011;15906;52.046;4.724;2023-07-29T00:35:02;5.63;;;1.40;;
27539;SDS011;15906;52.046;4.724;2023-07-29T00:37:28;2.85;;;1.60;;
27539;SDS011;15906;52.046;4.724;2023-07-29T00:39:55;5.47;;;1.48;;
27539;SDS011;15906;52.046;4.724;2023-07-29T00:42:20;5.38;;;1.60;;
27539;SDS011;15906;52.046;4.724;2023-07-29T00:44:46;3.50;;;1.85;;
27539;SDS011;15906;52.046;4.724;2023-07-29T00:47:11;6.80;;;1.58;;
27539;SDS011;15906;52.046;4.724;2023-07-29T00:49:39;4.63;;;1.80;;
27539;SDS011;15906;52.046;4.724;2023-07-29T00:52:05;3.38;;;1.38;;
27539;SDS011;15906;52.046;4.724;2023-07-29T00:54:31;4.15;;;1.58;;
27539;SDS011;15906;52.046;4.724;2023-07-29T00:56:56;3.03;;;1.60;;
27539;SDS011;15906;52.046;4.724;2023-07-29T00:59:22;4.25;;;1.60;;
27539;SDS011;15906;52.046;4.724;2023-07-29T01:01:48;3.95;;;2.00;;
27539;SDS011;15906;52.046;4.724;2023-07-29T01:04:14;4.90;;;2.25;;
27539;SDS011;15906;52.046;4.724;2023-07-29T01:06:41;6.72;;;2.45;;
27539;SDS011;15906;52.046;4.724;2023-07-29T01:12:01;9.35;;;2.53;;
27539;SDS011;15906;52.046;4.724;2023-07-29T01:17:45;7.50;;;2.75;;
27539;SDS011;15906;52.046;4.724;2023-07-29T01:20:15;6.13;;;2.67;;
27539;SDS011;15906;52.046;4.724;2023-07-29T01:22:42;6.38;;;2.78;;
27539;SDS011;15906;52.046;4.724;2023-07-29T01:25:08;5.13;;;2.38;;
27539;SDS011;15906;52.046;4.724;2023-07-29T01:27:34;8.13;;;2.95;;
27539;SDS011;15906;52.046;4.724;2023-07-29T01:29:59;5.32;;;2.60;;
27539;SDS011;15906;52.046;4.724;2023-07-29T01:32:41;5.57;;;2.22;;
27539;SDS011;15906;52.046;4.724;2023-07-29T01:35:15;4.68;;;2.60;;
27539;SDS011;15906;52.046;4.724;2023-07-29T01:37:49;9.55;;;3.90;;
27539;SDS011;15906;52.046;4.724;2023-07-29T01:40:19;9.95;;;2.65;;
27539;SDS011;15906;52.046;4.724;2023-07-29T01:42:48;4.85;;;2.70;;
27539;SDS011;15906;52.046;4.724;2023-07-29T01:45:14;4.72;;;2.30;;
27539;SDS011;15906;52.046;4.724;2023-07-29T01:47:40;5.50;;;2.35;;
27539;SDS011;15906;52.046;4.724;2023-07-29T01:50:06;6.10;;;2.50;;
27539;SDS011;15906;52.046;4.724;2023-07-29T01:52:32;5.75;;;2.47;;
27539;SDS011;15906;52.046;4.724;2023-07-29T01:54:58;4.60;;;2.40;;
27539;SDS011;15906;52.046;4.724;2023-07-29T01:57:23;5.30;;;2.22;;
27539;SDS011;15906;52.046;4.724;2023-07-29T01:59:49;4.10;;;2.10;;
27539;SDS011;15906;52.046;4.724;2023-07-29T02:02:15;3.90;;;1.83;;
27539;SDS011;15906;52.046;4.724;2023-07-29T02:04:40;5.30;;;2.35;;
27539;SDS011;15906;52.046;4.724;2023-07-29T02:07:06;5.68;;;2.42;;
27539;SDS011;15906;52.046;4.724;2023-07-29T02:09:31;3.78;;;3.08;;
27539;SDS011;15906;52.046;4.724;2023-07-29T02:11:57;4.97;;;2.28;;
27539;SDS011;15906;52.046;4.724;2023-07-29T02:14:23;4.80;;;1.95;;
27539;SDS011;15906;52.046;4.724;2023-07-29T02:16:48;3.45;;;1.92;;
27539;SDS011;15906;52.046;4.724;2023-07-29T02:19:15;3.38;;;2.10;;
27539;SDS011;15906;52.046;4.724;2023-07-29T02:21:40;5.10;;;2.15;;
27539;SDS011;15906;52.046;4.724;2023-07-29T02:24:06;7.25;;;2.30;;
27539;SDS011;15906;52.046;4.724;2023-07-29T02:26:31;6.25;;;2.13;;
27539;SDS011;15906;52.046;4.724;2023-07-29T02:28:57;3.55;;;1.80;;
27539;SDS011;15906;52.046;4.724;2023-07-29T02:31:23;3.50;;;1.83;;
27539;SDS011;15906;52.046;4.724;2023-07-29T02:33:50;2.35;;;1.60;;
27539;SDS011;15906;52.046;4.724;2023-07-29T02:36:16;2.60;;;1.60;;
27539;SDS011;15906;52.046;4.724;2023-07-29T02:38:42;4.20;;;1.45;;
27539;SDS011;15906;52.046;4.724;2023-07-29T02:41:08;3.25;;;1.92;;
27539;SDS011;15906;52.046;4.724;2023-07-29T02:43:35;2.63;;;1.88;;
27539;SDS011;15906;52.046;4.724;2023-07-29T02:46:01;4.25;;;2.00;;
27539;SDS011;15906;52.046;4.724;2023-07-29T02:48:27;4.25;;;1.67;;
27539;SDS011;15906;52.046;4.724;2023-07-29T02:50:53;4.85;;;2.38;;
27539;SDS011;15906;52.046;4.724;2023-07-29T02:53:19;3.92;;;1.90;;
27539;SDS011;15906;52.046;4.724;2023-07-29T02:55:45;2.60;;;1.70;;
27539;SDS011;15906;52.046;4.724;2023-07-29T02:58:10;2.53;;;1.75;;
27539;SDS011;15906;52.046;4.724;2023-07-29T03:00:36;5.03;;;1.77;;
27539;SDS011;15906;52.046;4.724;2023-07-29T03:03:02;3.75;;;2.00;;
27539;SDS011;15906;52.046;4.724;2023-07-29T03:05:27;3.83;;;2.08;;
27539;SDS011;15906;52.046;4.724;2023-07-29T03:07:53;4.80;;;1.73;;
27539;SDS011;15906;52.046;4.724;2023-07-29T03:10:18;3.15;;;2.00;;
27539;SDS011;15906;52.046;4.724;2023-07-29T03:12:45;3.25;;;1.88;;
27539;SDS011;15906;52.046;4.724;2023-07-29T03:15:11;3.50;;;1.70;;
27539;SDS011;15906;52.046;4.724;2023-07-29T03:17:37;4.30;;;1.90;;
27539;SDS011;15906;52.046;4.724;2023-07-29T03:20:03;4.03;;;2.00;;
27539;SDS011;15906;52.046;4.724;2023-07-29T03:22:29;4.38;;;1.80;;
27539;SDS011;15906;52.046;4.724;2023-07-29T03:24:54;5.63;;;2.25;;
27539;SDS011;15906;52.046;4.724;2023-07-29T03:27:20;5.13;;;2.05;;
27539;SDS011;15906;52.046;4.724;2023-07-29T03:29:45;3.65;;;2.08;;
27539;SDS011;15906;52.046;4.724;2023-07-29T03:32:11;3.75;;;1.90;;
27539;SDS011;15906;52.046;4.724;2023-07-29T03:34:37;3.17;;;1.80;;
27539;SDS011;15906;52.046;4.724;2023-07-29T03:37:03;3.78;;;1.85;;
27539;SDS011;15906;52.046;4.724;2023-07-29T03:39:29;4.18;;;2.03;;
27539;SDS011;15906;52.046;4.724;2023-07-29T03:41:54;6.28;;;2.15;;
27539;SDS011;15906;52.046;4.724;2023-07-29T03:44:20;5.35;;;2.28;;
27539;SDS011;15906;52.046;4.724;2023-07-29T03:46:45;3.30;;;2.10;;
27539;SDS011;15906;52.046;4.724;2023-07-29T03:49:11;4.05;;;2.13;;
27539;SDS011;15906;52.046;4.724;2023-07-29T03:51:36;4.32;;;2.15;;
27539;SDS011;15906;52.046;4.724;2023-07-29T03:54:02;3.22;;;2.10;;
27539;SDS011;15906;52.046;4.724;2023-07-29T03:56:28;6.00;;;2.13;;
27539;SDS011;15906;52.046;4.724;2023-07-29T03:58:53;7.60;;;2.45;;
27539;SDS011;15906;52.046;4.724;2023-07-29T04:01:26;4.03;;;2.28;;
27539;SDS011;15906;52.046;4.724;2023-07-29T04:03:52;6.45;;;2.45;;
27539;SDS011;15906;52.046;4.724;2023-07-29T04:06:17;9.50;;;2.20;;
27539;SDS011;15906;52.046;4.724;2023-07-29T04:08:43;5.75;;;2.40;;
27539;SDS011;15906;52.046;4.724;2023-07-29T04:11:08;3.80;;;2.45;;
27539;SDS011;15906;52.046;4.724;2023-07-29T04:13:34;3.42;;;2.35;;
27539;SDS011;15906;52.046;4.724;2023-07-29T04:16:00;7.25;;;2.05;;
27539;SDS011;15906;52.046;4.724;2023-07-29T04:18:25;5.53;;;2.90;;
27539;SDS011;15906;52.046;4.724;2023-07-29T04:20:51;4.65;;;2.30;;
27539;SDS011;15906;52.046;4.724;2023-07-29T04:23:17;4.88;;;2.45;;
27539;SDS011;15906;52.046;4.724;2023-07-29T04:25:42;6.68;;;2.55;;
27539;SDS011;15906;52.046;4.724;2023-07-29T04:28:08;4.57;;;2.42;;
27539;SDS011;15906;52.046;4.724;2023-07-29T04:30:33;10.40;;;2.20;;
27539;SDS011;15906;52.046;4.724;2023-07-29T04:32:59;9.35;;;2.35;;
27539;SDS011;15906;52.046;4.724;2023-07-29T04:35:24;5.47;;;2.85;;
27539;SDS011;15906;52.046;4.724;2023-07-29T04:37:50;9.70;;;3.08;;
27539;SDS011;15906;52.046;4.724;2023-07-29T04:40:15;5.18;;;3.20;;
27539;SDS011;15906;52.046;4.724;2023-07-29T04:42:41;5.97;;;2.92;;
27539;SDS011;15906;52.046;4.724;2023-07-29T04:45:06;4.57;;;2.45;;
27539;SDS011;15906;52.046;4.724;2023-07-29T04:47:32;7.35;;;2.83;;
27539;SDS011;15906;52.046;4.724;2023-07-29T04:49:57;7.07;;;2.85;;
27539;SDS011;15906;52.046;4.724;2023-07-29T04:52:23;5.68;;;2.97;;
27539;SDS011;15906;52.046;4.724;2023-07-29T04:54:48;7.50;;;3.08;;
27539;SDS011;15906;52.046;4.724;2023-07-29T04:57:14;7.03;;;3.75;;
27539;SDS011;15906;52.046;4.724;2023-07-29T04:59:40;7.05;;;3.38;;
27539;SDS011;15906;52.046;4.724;2023-07-29T05:02:05;5.75;;;3.40;;
27539;SDS011;15906;52.046;4.724;2023-07-29T05:04:31;7.30;;;3.72;;
27539;SDS011;15906;52.046;4.724;2023-07-29T05:06:56;9.90;;;3.70;;
27539;SDS011;15906;52.046;4.724;2023-07-29T05:09:22;7.40;;;4.18;;
27539;SDS011;15906;52.046;4.724;2023-07-29T05:11:48;5.80;;;4.05;;
27539;SDS011;15906;52.046;4.724;2023-07-29T05:14:14;9.93;;;4.10;;
27539;SDS011;15906;52.046;4.724;2023-07-29T05:16:41;8.43;;;4.20;;
27539;SDS011;15906;52.046;4.724;2023-07-29T05:19:07;7.22;;;3.60;;
27539;SDS011;15906;52.046;4.724;2023-07-29T05:21:33;8.70;;;4.07;;
27539;SDS011;15906;52.046;4.724;2023-07-29T05:23:59;8.00;;;3.75;;
27539;SDS011;15906;52.046;4.724;2023-07-29T05:26:24;6.97;;;4.63;;
27539;SDS011;15906;52.046;4.724;2023-07-29T05:28:50;8.13;;;4.22;;
27539;SDS011;15906;52.046;4.724;2023-07-29T05:31:15;9.50;;;4.20;;
27539;SDS011;15906;52.046;4.724;2023-07-29T05:33:41;8.63;;;4.55;;
27539;SDS011;15906;52.046;4.724;2023-07-29T05:36:06;6.10;;;4.05;;
27539;SDS011;15906;52.046;4.724;2023-07-29T05:38:32;9.90;;;4.55;;
27539;SDS011;15906;52.046;4.724;2023-07-29T05:40:57;10.70;;;4.63;;
27539;SDS011;15906;52.046;4.724;2023-07-29T05:43:26;8.63;;;4.40;;
27539;SDS011;15906;52.046;4.724;2023-07-29T05:45:52;7.45;;;4.13;;
27539;SDS011;15906;52.046;4.724;2023-07-29T05:48:19;6.38;;;4.60;;
27539;SDS011;15906;52.046;4.724;2023-07-29T05:50:45;8.23;;;3.97;;
27539;SDS011;15906;52.046;4.724;2023-07-29T05:53:10;9.25;;;4.47;;
27539;SDS011;15906;52.046;4.724;2023-07-29T05:55:36;9.60;;;4.82;;
27539;SDS011;15906;52.046;4.724;2023-07-29T05:58:01;7.20;;;5.35;;
27539;SDS011;15906;52.046;4.724;2023-07-29T06:00:27;10.30;;;4.70;;
27539;SDS011;15906;52.046;4.724;2023-07-29T06:02:52;6.28;;;4.10;;
27539;SDS011;15906;52.046;4.724;2023-07-29T06:05:18;8.35;;;4.82;;
27539;SDS011;15906;52.046;4.724;2023-07-29T06:07:43;7.38;;;4.55;;
27539;SDS011;15906;52.046;4.724;2023-07-29T06:10:10;7.72;;;4.70;;
27539;SDS011;15906;52.046;4.724;2023-07-29T06:12:43;6.20;;;4.13;;
27539;SDS011;15906;52.046;4.724;2023-07-29T06:15:09;7.50;;;4.50;;
27539;SDS011;15906;52.046;4.724;2023-07-29T06:17:35;9.30;;;4.22;;
27539;SDS011;15906;52.046;4.724;2023-07-29T06:20:00;7.15;;;4.20;;
27539;SDS011;15906;52.046;4.724;2023-07-29T06:22:26;8.77;;;4.80;;
27539;SDS011;15906;52.046;4.724;2023-07-29T06:24:52;10.40;;;4.20;;
27539;SDS011;15906;52.046;4.724;2023-07-29T06:27:17;11.23;;;4.63;;
27539;SDS011;15906;52.046;4.724;2023-07-29T06:29:43;5.47;;;3.75;;
27539;SDS011;15906;52.046;4.724;2023-07-29T06:32:08;10.20;;;4.40;;
27539;SDS011;15906;52.046;4.724;2023-07-29T06:34:34;7.35;;;3.85;;
27539;SDS011;15906;52.046;4.724;2023-07-29T06:36:59;10.98;;;4.43;;
27539;SDS011;15906;52.046;4.724;2023-07-29T06:39:25;8.90;;;3.63;;
27539;SDS011;15906;52.046;4.724;2023-07-29T06:41:50;11.65;;;5.65;;
27539;SDS011;15906;52.046;4.724;2023-07-29T06:44:16;10.63;;;4.28;;
27539;SDS011;15906;52.046;4.724;2023-07-29T06:46:41;8.52;;;4.43;;
27539;SDS011;15906;52.046;4.724;2023-07-29T06:49:07;6.75;;;4.38;;
27539;SDS011;15906;52.046;4.724;2023-07-29T06:51:32;7.88;;;4.55;;
27539;SDS011;15906;52.046;4.724;2023-07-29T06:54:00;7.78;;;3.97;;
27539;SDS011;15906;52.046;4.724;2023-07-29T06:56:28;7.35;;;3.95;;
27539;SDS011;15906;52.046;4.724;2023-07-29T06:58:54;4.78;;;3.25;;
27539;SDS011;15906;52.046;4.724;2023-07-29T07:01:20;7.75;;;3.50;;
27539;SDS011;15906;52.046;4.724;2023-07-29T07:03:45;6.70;;;3.55;;
27539;SDS011;15906;52.046;4.724;2023-07-29T07:06:11;6.20;;;3.42;;
27539;SDS011;15906;52.046;4.724;2023-07-29T07:08:36;5.70;;;3.40;;
27539;SDS011;15906;52.046;4.724;2023-07-29T07:11:02;7.40;;;3.03;;
27539;SDS011;15906;52.046;4.724;2023-07-29T07:13:27;8.82;;;3.22;;
27539;SDS011;15906;52.046;4.724;2023-07-29T07:15:56;4.68;;;3.28;;
27539;SDS011;15906;52.046;4.724;2023-07-29T07:18:22;7.68;;;3.90;;
27539;SDS011;15906;52.046;4.724;2023-07-29T07:20:48;5.82;;;2.83;;
27539;SDS011;15906;52.046;4.724;2023-07-29T07:23:15;7.68;;;3.67;;
27539;SDS011;15906;52.046;4.724;2023-07-29T07:25:41;7.70;;;3.63;;
27539;SDS011;15906;52.046;4.724;2023-07-29T07:28:07;7.85;;;3.60;;
27539;SDS011;15906;52.046;4.724;2023-07-29T07:30:34;8.07;;;3.92;;
27539;SDS011;15906;52.046;4.724;2023-07-29T07:32:59;7.88;;;3.25;;
27539;SDS011;15906;52.046;4.724;2023-07-29T07:35:25;7.05;;;2.95;;
27539;SDS011;15906;52.046;4.724;2023-07-29T07:37:51;4.15;;;2.75;;
27539;SDS011;15906;52.046;4.724;2023-07-29T07:40:16;5.68;;;3.60;;
27539;SDS011;15906;52.046;4.724;2023-07-29T07:42:42;3.22;;;2.90;;
27539;SDS011;15906;52.046;4.724;2023-07-29T07:45:07;4.20;;;2.67;;
27539;SDS011;15906;52.046;4.724;2023-07-29T07:47:33;4.03;;;2.03;;
27539;SDS011;15906;52.046;4.724;2023-07-29T07:49:59;2.80;;;1.90;;
27539;SDS011;15906;52.046;4.724;2023-07-29T07:52:24;3.67;;;1.70;;
27539;SDS011;15906;52.046;4.724;2023-07-29T07:54:53;6.03;;;2.05;;
27539;SDS011;15906;52.046;4.724;2023-07-29T07:57:22;4.70;;;1.58;;
27539;SDS011;15906;52.046;4.724;2023-07-29T07:59:48;3.13;;;1.80;;
27539;SDS011;15906;52.046;4.724;2023-07-29T08:02:13;6.35;;;1.90;;
27539;SDS011;15906;52.046;4.724;2023-07-29T08:04:39;3.40;;;1.83;;
27539;SDS011;15906;52.046;4.724;2023-07-29T08:07:05;7.93;;;2.13;;
27539;SDS011;15906;52.046;4.724;2023-07-29T08:09:30;4.10;;;1.67;;
27539;SDS011;15906;52.046;4.724;2023-07-29T08:11:56;5.88;;;2.15;;
27539;SDS011;15906;52.046;4.724;2023-07-29T08:14:21;5.97;;;2.20;;
27539;SDS011;15906;52.046;4.724;2023-07-29T08:16:47;4.20;;;1.77;;
27539;SDS011;15906;52.046;4.724;2023-07-29T08:19:12;6.68;;;1.60;;
27539;SDS011;15906;52.046;4.724;2023-07-29T08:21:38;2.33;;;1.50;;
27539;SDS011;15906;52.046;4.724;2023-07-29T08:24:04;4.47;;;1.45;;
27539;SDS011;15906;52.046;4.724;2023-07-29T08:26:29;4.35;;;1.77;;
27539;SDS011;15906;52.046;4.724;2023-07-29T08:28:55;5.05;;;1.55;;
27539;SDS011;15906;52.046;4.724;2023-07-29T08:31:20;4.63;;;1.35;;
27539;SDS011;15906;52.046;4.724;2023-07-29T08:33:46;4.65;;;1.48;;
27539;SDS011;15906;52.046;4.724;2023-07-29T08:36:11;5.65;;;1.70;;
27539;SDS011;15906;52.046;4.724;2023-07-29T08:38:37;4.28;;;1.58;;
27539;SDS011;15906;52.046;4.724;2023-07-29T08:41:24;5.15;;;1.65;;
27539;SDS011;15906;52.046;4.724;2023-07-29T08:46:32;7.43;;;1.50;;
27539;SDS011;15906;52.046;4.724;2023-07-29T08:48:58;2.63;;;1.70;;
27539;SDS011;15906;52.046;4.724;2023-07-29T08:51:26;6.00;;;1.60;;
27539;SDS011;15906;52.046;4.724;2023-07-29T08:53:52;2.92;;;1.55;;
27539;SDS011;15906;52.046;4.724;2023-07-29T08:56:18;5.82;;;2.08;;
27539;SDS011;15906;52.046;4.724;2023-07-29T08:58:44;2.28;;;1.70;;
27539;SDS011;15906;52.046;4.724;2023-07-29T09:01:10;4.50;;;1.67;;
27539;SDS011;15906;52.046;4.724;2023-07-29T09:03:36;4.05;;;1.60;;
27539;SDS011;15906;52.046;4.724;2023-07-29T09:06:02;5.55;;;2.10;;
27539;SDS011;15906;52.046;4.724;2023-07-29T09:08:28;5.57;;;2.40;;
27539;SDS011;15906;52.046;4.724;2023-07-29T09:10:54;6.57;;;2.40;;
27539;SDS011;15906;52.046;4.724;2023-07-29T09:13:20;5.65;;;2.33;;
27539;SDS011;15906;52.046;4.724;2023-07-29T09:15:46;3.17;;;2.00;;
27539;SDS011;15906;52.046;4.724;2023-07-29T09:18:16;5.93;;;2.58;;
27539;SDS011;15906;52.046;4.724;2023-07-29T09:20:44;7.47;;;2.45;;
27539;SDS011;15906;52.046;4.724;2023-07-29T09:23:12;6.15;;;2.97;;
27539;SDS011;15906;52.046;4.724;2023-07-29T09:25:38;9.25;;;3.00;;
27539;SDS011;15906;52.046;4.724;2023-07-29T09:28:11;5.43;;;2.75;;
27539;SDS011;15906;52.046;4.724;2023-07-29T09:30:41;5.60;;;2.80;;
27539;SDS011;15906;52.046;4.724;2023-07-29T09:33:08;5.50;;;3.40;;
27539;SDS011;15906;52.046;4.724;2023-07-29T09:35:34;5.15;;;2.92;;
27539;SDS011;15906;52.046;4.724;2023-07-29T09:38:01;8.35;;;3.28;;
27539;SDS011;15906;52.046;4.724;2023-07-29T09:40:36;4.85;;;2.75;;
27539;SDS011;15906;52.046;4.724;2023-07-29T09:43:03;6.00;;;3.05;;
27539;SDS011;15906;52.046;4.724;2023-07-29T09:45:30;6.55;;;3.92;;
27539;SDS011;15906;52.046;4.724;2023-07-29T09:47:57;5.25;;;3.58;;
27539;SDS011;15906;52.046;4.724;2023-07-29T09:50:24;7.20;;;3.20;;
27539;SDS011;15906;52.046;4.724;2023-07-29T09:52:50;6.93;;;3.25;;
27539;SDS011;15906;52.046;4.724;2023-07-29T09:55:17;4.15;;;2.80;;
27539;SDS011;15906;52.046;4.724;2023-07-29T09:57:44;3.38;;;2.35;;
27539;SDS011;15906;52.046;4.724;2023-07-29T10:00:13;3.72;;;2.42;;
27539;SDS011;15906;52.046;4.724;2023-07-29T10:02:39;4.43;;;2.90;;
27539;SDS011;15906;52.046;4.724;2023-07-29T10:05:06;4.88;;;3.30;;
27539;SDS011;15906;52.046;4.724;2023-07-29T10:07:34;5.63;;;3.25;;
27539;SDS011;15906;52.046;4.724;2023-07-29T10:10:02;4.20;;;2.92;;
27539;SDS011;15906;52.046;4.724;2023-07-29T10:12:33;4.35;;;3.33;;
27539;SDS011;15906;52.046;4.724;2023-07-29T10:15:00;6.93;;;3.60;;
27539;SDS011;15906;52.046;4.724;2023-07-29T10:17:29;4.50;;;3.10;;
27539;SDS011;15906;52.046;4.724;2023-07-29T10:19:55;3.03;;;2.72;;
27539;SDS011;15906;52.046;4.724;2023-07-29T10:22:22;4.53;;;3.00;;
27539;SDS011;15906;52.046;4.724;2023-07-29T10:24:53;2.95;;;2.58;;
27539;SDS011;15906;52.046;4.724;2023-07-29T10:27:23;6.13;;;2.50;;
27539;SDS011;15906;52.046;4.724;2023-07-29T10:29:51;2.78;;;2.03;;
27539;SDS011;15906;52.046;4.724;2023-07-29T10:32:19;3.08;;;2.55;;
27539;SDS011;15906;52.046;4.724;2023-07-29T10:34:50;3.97;;;2.40;;
27539;SDS011;15906;52.046;4.724;2023-07-29T10:37:16;2.65;;;1.70;;
27539;SDS011;15906;52.046;4.724;2023-07-29T10:39:45;4.55;;;2.20;;
27539;SDS011;15906;52.046;4.724;2023-07-29T10:42:18;1.75;;;1.15;;
27539;SDS011;15906;52.046;4.724;2023-07-29T10:44:51;1.95;;;1.30;;
27539;SDS011;15906;52.046;4.724;2023-07-29T10:49:46;1.63;;;1.15;;
27539;SDS011;15906;52.046;4.724;2023-07-29T10:52:14;3.63;;;1.73;;
27539;SDS011;15906;52.046;4.724;2023-07-29T10:54:41;2.28;;;1.15;;
27539;SDS011;15906;52.046;4.724;2023-07-29T10:57:15;2.22;;;1.20;;
27539;SDS011;15906;52.046;4.724;2023-07-29T10:59:55;1.33;;;1.13;;
27539;SDS011;15906;52.046;4.724;2023-07-29T11:02:22;2.00;;;1.10;;
27539;SDS011;15906;52.046;4.724;2023-07-29T11:04:57;3.67;;;1.13;;
27539;SDS011;15906;52.046;4.724;2023-07-29T11:07:27;1.83;;;1.40;;
27539;SDS011;15906;52.046;4.724;2023-07-29T11:10:02;2.05;;;1.33;;
27539;SDS011;15906;52.046;4.724;2023-07-29T11:12:47;3.05;;;1.60;;
27539;SDS011;15906;52.046;4.724;2023-07-29T11:20:33;4.15;;;1.77;;
27539;SDS011;15906;52.046;4.724;2023-07-29T11:23:03;3.20;;;2.13;;
27539;SDS011;15906;52.046;4.724;2023-07-29T11:25:29;2.63;;;2.15;;
27539;SDS011;15906;52.046;4.724;2023-07-29T11:27:57;3.80;;;2.70;;
27539;SDS011;15906;52.046;4.724;2023-07-29T11:30:23;3.67;;;2.10;;
27539;SDS011;15906;52.046;4.724;2023-07-29T11:32:52;4.28;;;2.20;;
27539;SDS011;15906;52.046;4.724;2023-07-29T11:35:18;3.03;;;2.17;;
27539;SDS011;15906;52.046;4.724;2023-07-29T11:37:48;3.33;;;2.05;;
27539;SDS011;15906;52.046;4.724;2023-07-29T11:40:15;3.67;;;2.05;;
27539;SDS011;15906;52.046;4.724;2023-07-29T11:42:48;3.15;;;2.13;;
27539;SDS011;15906;52.046;4.724;2023-07-29T11:45:18;3.53;;;2.10;;
27539;SDS011;15906;52.046;4.724;2023-07-29T11:47:44;2.40;;;1.83;;
27539;SDS011;15906;52.046;4.724;2023-07-29T11:50:11;3.47;;;1.90;;
27539;SDS011;15906;52.046;4.724;2023-07-29T11:52:41;2.85;;;2.20;;
27539;SDS011;15906;52.046;4.724;2023-07-29T11:55:08;3.33;;;2.08;;
27539;SDS011;15906;52.046;4.724;2023-07-29T11:57:35;6.07;;;2.08;;
27539;SDS011;15906;52.046;4.724;2023-07-29T12:00:05;4.18;;;2.40;;
27539;SDS011;15906;52.046;4.724;2023-07-29T12:02:36;2.55;;;1.83;;
27539;SDS011;15906;52.046;4.724;2023-07-29T12:05:03;3.13;;;2.20;;
27539;SDS011;15906;52.046;4.724;2023-07-29T12:07:30;3.53;;;2.60;;
27539;SDS011;15906;52.046;4.724;2023-07-29T12:09:56;3.80;;;2.42;;
27539;SDS011;15906;52.046;4.724;2023-07-29T12:12:22;4.57;;;2.63;;
27539;SDS011;15906;52.046;4.724;2023-07-29T12:14:48;4.60;;;2.22;;
27539;SDS011;15906;52.046;4.724;2023-07-29T12:17:14;4.70;;;3.15;;
27539;SDS011;15906;52.046;4.724;2023-07-29T12:19:40;3.88;;;3.47;;
27539;SDS011;15906;52.046;4.724;2023-07-29T12:22:07;4.88;;;3.83;;
27539;SDS011;15906;52.046;4.724;2023-07-29T12:24:35;4.20;;;3.08;;
27539;SDS011;15906;52.046;4.724;2023-07-29T12:27:02;5.35;;;3.10;;
27539;SDS011;15906;52.046;4.724;2023-07-29T12:29:28;5.07;;;3.70;;
27539;SDS011;15906;52.046;4.724;2023-07-29T12:31:58;3.50;;;3.20;;
27539;SDS011;15906;52.046;4.724;2023-07-29T12:34:29;5.95;;;2.85;;
27539;SDS011;15906;52.046;4.724;2023-07-29T12:36:56;3.30;;;2.45;;
27539;SDS011;15906;52.046;4.724;2023-07-29T12:39:24;3.70;;;2.33;;
27539;SDS011;15906;52.046;4.724;2023-07-29T12:41:51;3.95;;;2.33;;
27539;SDS011;15906;52.046;4.724;2023-07-29T12:44:18;2.97;;;2.67;;
27539;SDS011;15906;52.046;4.724;2023-07-29T12:46:44;3.40;;;3.10;;
27539;SDS011;15906;52.046;4.724;2023-07-29T12:49:10;4.15;;;3.75;;
27539;SDS011;15906;52.046;4.724;2023-07-29T12:51:35;6.70;;;3.25;;
27539;SDS011;15906;52.046;4.724;2023-07-29T12:54:02;4.15;;;3.35;;
27539;SDS011;15906;52.046;4.724;2023-07-29T12:56:29;3.80;;;2.70;;
27539;SDS011;15906;52.046;4.724;2023-07-29T12:58:56;3.85;;;2.00;;
27539;SDS011;15906;52.046;4.724;2023-07-29T13:01:23;3.08;;;2.40;;
27539;SDS011;15906;52.046;4.724;2023-07-29T13:03:48;3.63;;;2.25;;
27539;SDS011;15906;52.046;4.724;2023-07-29T13:06:14;2.72;;;2.25;;
27539;SDS011;15906;52.046;4.724;2023-07-29T13:08:40;4.35;;;2.70;;
27539;SDS011;15906;52.046;4.724;2023-07-29T13:11:06;3.45;;;1.80;;
27539;SDS011;15906;52.046;4.724;2023-07-29T13:13:32;4.18;;;1.73;;
27539;SDS011;15906;52.046;4.724;2023-07-29T13:15:57;1.77;;;1.48;;
27539;SDS011;15906;52.046;4.724;2023-07-29T13:18:23;3.67;;;1.60;;
27539;SDS011;15906;52.046;4.724;2023-07-29T13:20:48;4.38;;;1.60;;
27539;SDS011;15906;52.046;4.724;2023-07-29T13:23:14;5.70;;;1.70;;
27539;SDS011;15906;52.046;4.724;2023-07-29T13:25:41;4.38;;;1.63;;
27539;SDS011;15906;52.046;4.724;2023-07-29T13:28:07;2.33;;;1.63;;
27539;SDS011;15906;52.046;4.724;2023-07-29T13:30:33;2.40;;;2.08;;
27539;SDS011;15906;52.046;4.724;2023-07-29T13:32:59;2.42;;;1.42;;
27539;SDS011;15906;52.046;4.724;2023-07-29T13:35:24;2.75;;;1.33;;
27539;SDS011;15906;52.046;4.724;2023-07-29T13:37:50;4.28;;;1.48;;
27539;SDS011;15906;52.046;4.724;2023-07-29T13:40:16;3.10;;;1.30;;
27539;SDS011;15906;52.046;4.724;2023-07-29T13:42:41;2.35;;;1.20;;
27539;SDS011;15906;52.046;4.724;2023-07-29T13:45:07;2.10;;;1.10;;
27539;SDS011;15906;52.046;4.724;2023-07-29T13:47:33;1.55;;;1.20;;
27539;SDS011;15906;52.046;4.724;2023-07-29T13:49:59;2.70;;;1.02;;
27539;SDS011;15906;52.046;4.724;2023-07-29T13:52:25;2.25;;;1.05;;
27539;SDS011;15906;52.046;4.724;2023-07-29T13:54:50;6.38;;;1.30;;
27539;SDS011;15906;52.046;4.724;2023-07-29T13:57:16;2.97;;;1.23;;
27539;SDS011;15906;52.046;4.724;2023-07-29T13:59:41;3.25;;;1.17;;
27539;SDS011;15906;52.046;4.724;2023-07-29T14:02:07;2.17;;;1.17;;
27539;SDS011;15906;52.046;4.724;2023-07-29T14:04:32;1.80;;;1.13;;
27539;SDS011;15906;52.046;4.724;2023-07-29T14:06:58;2.10;;;1.00;;
27539;SDS011;15906;52.046;4.724;2023-07-29T14:09:24;2.88;;;1.38;;
27539;SDS011;15906;52.046;4.724;2023-07-29T14:11:51;4.75;;;2.25;;
27539;SDS011;15906;52.046;4.724;2023-07-29T14:14:16;3.50;;;1.15;;
27539;SDS011;15906;52.046;4.724;2023-07-29T14:16:42;3.65;;;1.15;;
27539;SDS011;15906;52.046;4.724;2023-07-29T14:19:07;3.22;;;1.40;;
27539;SDS011;15906;52.046;4.724;2023-07-29T14:21:33;2.90;;;1.15;;
27539;SDS011;15906;52.046;4.724;2023-07-29T14:23:58;2.67;;;1.00;;
27539;SDS011;15906;52.046;4.724;2023-07-29T14:26:24;2.28;;;1.10;;
27539;SDS011;15906;52.046;4.724;2023-07-29T14:28:49;3.50;;;1.33;;
27539;SDS011;15906;52.046;4.724;2023-07-29T14:31:15;4.78;;;1.20;;
27539;SDS011;15906;52.046;4.724;2023-07-29T14:33:44;2.65;;;1.30;;
27539;SDS011;15906;52.046;4.724;2023-07-29T14:36:09;3.92;;;1.40;;
27539;SDS011;15906;52.046;4.724;2023-07-29T14:38:35;5.00;;;1.48;;
27539;SDS011;15906;52.046;4.724;2023-07-29T14:41:02;3.78;;;1.40;;
27539;SDS011;15906;52.046;4.724;2023-07-29T14:43:29;3.03;;;1.52;;
27539;SDS011;15906;52.046;4.724;2023-07-29T14:45:55;3.55;;;1.40;;
27539;SDS011;15906;52.046;4.724;2023-07-29T14:48:21;1.65;;;1.10;;
27539;SDS011;15906;52.046;4.724;2023-07-29T14:50:46;3.45;;;1.17;;
27539;SDS011;15906;52.046;4.724;2023-07-29T14:53:12;5.00;;;1.48;;
27539;SDS011;15906;52.046;4.724;2023-07-29T14:55:38;3.70;;;1.60;;
27539;SDS011;15906;52.046;4.724;2023-07-29T14:58:03;2.75;;;1.17;;
27539;SDS011;15906;52.046;4.724;2023-07-29T15:00:29;6.30;;;1.40;;